sensor_id;sensor_type;location;lat;lon;timestamp;pressure;altitude;pressure_sealevel;temperature;humidity
55171;BME280;41060;47.510;8.680;2023-05-01T00:02:19;96902.44;;;18.71;38.88
55171;BME280;41060;47.510;8.680;2023-05-01T00:04:45;96904.09;;;18.72;38.93
55171;BME280;41060;47.510;8.680;2023-05-01T00:07:13;96886.78;;;18.52;39.63
55171;BME280;41060;47.510;8.680;2023-05-01T00:09:41;96894.78;;;18.60;39.63
55171;BME280;41060;47.510;8.680;2023-05-01T00:12:10;96867.78;;;18.39;39.75
55171;BME280;41060;47.510;8.680;2023-05-01T00:14:37;96874.78;;;18.40;39.92
55171;BME280;41060;47.510;8.680;2023-05-01T00:17:04;96896.53;;;18.45;40.04
55171;BME280;41060;47.510;8.680;2023-05-01T00:19:31;96891.66;;;18.49;39.99
55171;BME280;41060;47.510;8.680;2023-05-01T00:21:57;96889.34;;;18.46;40.06
55171;BME280;41060;47.510;8.680;2023-05-01T00:24:26;96864.75;;;18.34;40.38
55171;BME280;41060;47.510;8.680;2023-05-01T00:26:52;96889.81;;;18.49;40.08
55171;BME280;41060;47.510;8.680;2023-05-01T00:29:19;96883.97;;;18.46;40.10
55171;BME280;41060;47.510;8.680;2023-05-01T00:31:46;96886.63;;;18.54;39.66
55171;BME280;41060;47.510;8.680;2023-05-01T00:34:12;96837.00;;;18.27;39.62
55171;BME280;41060;47.510;8.680;2023-05-01T00:36:39;96888.34;;;18.47;39.24
55171;BME280;41060;47.510;8.680;2023-05-01T00:39:08;96879.75;;;18.51;39.37
55171;BME280;41060;47.510;8.680;2023-05-01T00:41:37;96876.78;;;18.46;39.52
55171;BME280;41060;47.510;8.680;2023-05-01T00:44:03;96882.00;;;18.39;39.80
55171;BME280;41060;47.510;8.680;2023-05-01T00:46:33;96864.59;;;18.35;40.03
55171;BME280;41060;47.510;8.680;2023-05-01T00:49:01;96876.44;;;18.41;40.29
55171;BME280;41060;47.510;8.680;2023-05-01T00:51:28;96870.25;;;18.40;40.27
55171;BME280;41060;47.510;8.680;2023-05-01T00:53:58;96870.44;;;18.39;40.58
55171;BME280;41060;47.510;8.680;2023-05-01T00:56:25;96874.97;;;18.38;40.71
55171;BME280;41060;47.510;8.680;2023-05-01T00:58:54;96871.47;;;18.38;40.39
55171;BME280;41060;47.510;8.680;2023-05-01T01:01:22;96871.94;;;18.41;40.81
55171;BME280;41060;47.510;8.680;2023-05-01T01:03:49;96867.09;;;18.37;41.14
55171;BME280;41060;47.510;8.680;2023-05-01T01:06:23;96870.66;;;18.29;41.95
55171;BME280;41060;47.510;8.680;2023-05-01T01:09:01;96857.88;;;18.09;43.25
55171;BME280;41060;47.510;8.680;2023-05-01T01:11:39;96862.59;;;17.98;43.13
55171;BME280;41060;47.510;8.680;2023-05-01T01:14:15;96867.25;;;18.04;43.07
55171;BME280;41060;47.510;8.680;2023-05-01T01:16:45;96874.88;;;17.93;43.26
55171;BME280;41060;47.510;8.680;2023-05-01T01:19:40;96862.34;;;17.85;43.66
55171;BME280;41060;47.510;8.680;2023-05-01T01:22:19;96862.16;;;17.87;43.74
55171;BME280;41060;47.510;8.680;2023-05-01T01:25:03;96862.34;;;17.69;44.27
55171;BME280;41060;47.510;8.680;2023-05-01T01:28:09;96841.22;;;17.27;45.35
55171;BME280;41060;47.510;8.680;2023-05-01T01:30:58;96858.25;;;17.42;46.02
55171;BME280;41060;47.510;8.680;2023-05-01T01:33:54;96862.13;;;17.32;46.53
55171;BME280;41060;47.510;8.680;2023-05-01T01:36:34;96856.75;;;17.40;46.33
55171;BME280;41060;47.510;8.680;2023-05-01T01:39:07;96865.78;;;17.39;46.41
55171;BME280;41060;47.510;8.680;2023-05-01T01:41:35;96871.44;;;17.44;46.81
55171;BME280;41060;47.510;8.680;2023-05-01T01:44:08;96859.94;;;17.43;46.49
55171;BME280;41060;47.510;8.680;2023-05-01T01:46:38;96867.59;;;17.46;46.59
55171;BME280;41060;47.510;8.680;2023-05-01T01:49:12;96874.31;;;17.42;46.75
55171;BME280;41060;47.510;8.680;2023-05-01T01:51:44;96870.31;;;17.14;47.54
55171;BME280;41060;47.510;8.680;2023-05-01T01:54:14;96877.19;;;16.84;48.12
55171;BME280;41060;47.510;8.680;2023-05-01T01:56:42;96885.81;;;16.37;49.54
55171;BME280;41060;47.510;8.680;2023-05-01T01:59:09;96878.78;;;16.36;49.56
55171;BME280;41060;47.510;8.680;2023-05-01T02:01:38;96852.13;;;16.02;49.84
55171;BME280;41060;47.510;8.680;2023-05-01T02:04:09;96875.94;;;16.30;49.96
55171;BME280;41060;47.510;8.680;2023-05-01T02:06:37;96876.22;;;16.19;49.37
55171;BME280;41060;47.510;8.680;2023-05-01T02:09:07;96876.03;;;16.12;49.97
55171;BME280;41060;47.510;8.680;2023-05-01T02:11:35;96873.53;;;16.19;50.07
55171;BME280;41060;47.510;8.680;2023-05-01T02:14:04;96880.13;;;15.98;50.54
55171;BME280;41060;47.510;8.680;2023-05-01T02:16:32;96874.03;;;16.14;50.33
55171;BME280;41060;47.510;8.680;2023-05-01T02:19:01;96879.19;;;16.07;50.49
55171;BME280;41060;47.510;8.680;2023-05-01T02:21:31;96879.38;;;15.72;51.22
55171;BME280;41060;47.510;8.680;2023-05-01T02:24:00;96877.34;;;15.74;50.92
55171;BME280;41060;47.510;8.680;2023-05-01T02:26:28;96879.47;;;15.62;50.29
55171;BME280;41060;47.510;8.680;2023-05-01T02:28:54;96877.50;;;15.64;50.92
55171;BME280;41060;47.510;8.680;2023-05-01T02:31:22;96875.22;;;15.78;50.72
55171;BME280;41060;47.510;8.680;2023-05-01T02:33:48;96870.91;;;15.85;50.86
55171;BME280;41060;47.510;8.680;2023-05-01T02:36:15;96871.22;;;15.82;50.61
55171;BME280;41060;47.510;8.680;2023-05-01T02:38:43;96870.53;;;15.71;50.82
55171;BME280;41060;47.510;8.680;2023-05-01T02:41:14;96826.81;;;15.39;51.36
55171;BME280;41060;47.510;8.680;2023-05-01T02:43:41;96858.63;;;15.66;50.92
55171;BME280;41060;47.510;8.680;2023-05-01T02:46:09;96865.63;;;15.67;50.90
55171;BME280;41060;47.510;8.680;2023-05-01T02:48:39;96842.38;;;15.51;51.20
55171;BME280;41060;47.510;8.680;2023-05-01T02:51:10;96846.84;;;15.77;50.90
55171;BME280;41060;47.510;8.680;2023-05-01T02:53:37;96851.22;;;15.86;51.05
55171;BME280;41060;47.510;8.680;2023-05-01T02:56:09;96822.72;;;15.52;50.94
55171;BME280;41060;47.510;8.680;2023-05-01T02:58:37;96852.09;;;15.60;51.26
55171;BME280;41060;47.510;8.680;2023-05-01T03:01:04;96854.97;;;15.67;51.48
55171;BME280;41060;47.510;8.680;2023-05-01T03:03:31;96856.03;;;15.82;50.92
55171;BME280;41060;47.510;8.680;2023-05-01T03:06:00;96812.94;;;15.69;51.02
55171;BME280;41060;47.510;8.680;2023-05-01T03:08:27;96849.25;;;15.96;50.66
55171;BME280;41060;47.510;8.680;2023-05-01T03:10:54;96849.09;;;16.05;50.75
55171;BME280;41060;47.510;8.680;2023-05-01T03:13:22;96843.09;;;16.03;50.66
55171;BME280;41060;47.510;8.680;2023-05-01T03:15:49;96839.28;;;16.06;50.25
55171;BME280;41060;47.510;8.680;2023-05-01T03:18:16;96840.97;;;16.07;50.12
55171;BME280;41060;47.510;8.680;2023-05-01T03:20:50;96840.22;;;15.97;50.44
55171;BME280;41060;47.510;8.680;2023-05-01T03:23:17;96843.44;;;16.00;50.40
55171;BME280;41060;47.510;8.680;2023-05-01T03:25:43;96844.34;;;15.83;51.17
55171;BME280;41060;47.510;8.680;2023-05-01T03:28:10;96816.91;;;15.57;51.64
55171;BME280;41060;47.510;8.680;2023-05-01T03:30:38;96838.06;;;15.58;52.19
55171;BME280;41060;47.510;8.680;2023-05-01T03:33:05;96825.72;;;15.49;52.04
55171;BME280;41060;47.510;8.680;2023-05-01T03:35:31;96836.13;;;15.68;51.64
55171;BME280;41060;47.510;8.680;2023-05-01T03:37:59;96838.84;;;15.77;51.34
55171;BME280;41060;47.510;8.680;2023-05-01T03:40:28;96836.13;;;15.68;51.44
55171;BME280;41060;47.510;8.680;2023-05-01T03:42:55;96841.75;;;15.57;51.73
55171;BME280;41060;47.510;8.680;2023-05-01T03:45:22;96836.03;;;15.52;52.18
55171;BME280;41060;47.510;8.680;2023-05-01T03:47:50;96834.75;;;15.56;52.07
55171;BME280;41060;47.510;8.680;2023-05-01T03:50:17;96853.03;;;15.51;52.67
55171;BME280;41060;47.510;8.680;2023-05-01T03:52:44;96841.94;;;15.30;52.33
55171;BME280;41060;47.510;8.680;2023-05-01T03:55:11;96827.88;;;15.54;51.85
55171;BME280;41060;47.510;8.680;2023-05-01T03:57:37;96844.06;;;15.52;52.62
55171;BME280;41060;47.510;8.680;2023-05-01T04:00:11;96843.41;;;15.50;52.34
55171;BME280;41060;47.510;8.680;2023-05-01T04:02:37;96850.38;;;15.51;51.85
55171;BME280;41060;47.510;8.680;2023-05-01T04:05:10;96840.59;;;15.60;51.66
55171;BME280;41060;47.510;8.680;2023-05-01T04:07:37;96849.97;;;15.64;51.13
55171;BME280;41060;47.510;8.680;2023-05-01T04:10:05;96835.69;;;15.47;51.23
55171;BME280;41060;47.510;8.680;2023-05-01T04:12:34;96796.03;;;15.18;51.68
55171;BME280;41060;47.510;8.680;2023-05-01T04:15:00;96854.69;;;15.44;51.84
55171;BME280;41060;47.510;8.680;2023-05-01T04:17:28;96850.66;;;15.40;52.10
55171;BME280;41060;47.510;8.680;2023-05-01T04:19:55;96848.00;;;15.40;52.24
55171;BME280;41060;47.510;8.680;2023-05-01T04:22:23;96853.69;;;15.45;51.92
55171;BME280;41060;47.510;8.680;2023-05-01T04:24:49;96837.28;;;15.32;51.86
55171;BME280;41060;47.510;8.680;2023-05-01T04:27:16;96809.78;;;15.31;51.96
55171;BME280;41060;47.510;8.680;2023-05-01T04:29:43;96848.44;;;15.61;51.84
55171;BME280;41060;47.510;8.680;2023-05-01T04:32:10;96850.47;;;15.67;51.82
55171;BME280;41060;47.510;8.680;2023-05-01T04:34:37;96858.84;;;15.72;51.36
55171;BME280;41060;47.510;8.680;2023-05-01T04:37:04;96852.22;;;15.85;51.10
55171;BME280;41060;47.510;8.680;2023-05-01T04:39:34;96857.75;;;15.91;51.28
55171;BME280;41060;47.510;8.680;2023-05-01T04:42:01;96857.94;;;15.98;51.23
55171;BME280;41060;47.510;8.680;2023-05-01T04:44:28;96852.44;;;15.99;51.15
55171;BME280;41060;47.510;8.680;2023-05-01T04:46:55;96830.28;;;15.73;50.79
55171;BME280;41060;47.510;8.680;2023-05-01T04:49:22;96845.88;;;15.86;50.67
55171;BME280;41060;47.510;8.680;2023-05-01T04:51:48;96858.91;;;15.97;51.11
55171;BME280;41060;47.510;8.680;2023-05-01T04:54:15;96818.63;;;15.74;50.51
55171;BME280;41060;47.510;8.680;2023-05-01T04:56:46;96813.13;;;15.76;50.13
55171;BME280;41060;47.510;8.680;2023-05-01T04:59:13;96852.50;;;16.07;50.17
55171;BME280;41060;47.510;8.680;2023-05-01T05:01:45;96864.88;;;16.17;50.28
55171;BME280;41060;47.510;8.680;2023-05-01T05:04:12;96869.50;;;16.06;50.22
55171;BME280;41060;47.510;8.680;2023-05-01T05:06:39;96875.91;;;15.88;50.73
55171;BME280;41060;47.510;8.680;2023-05-01T05:09:05;96863.22;;;15.48;51.36
55171;BME280;41060;47.510;8.680;2023-05-01T05:11:33;96876.75;;;15.54;51.58
55171;BME280;41060;47.510;8.680;2023-05-01T05:14:00;96873.22;;;15.46;51.49
55171;BME280;41060;47.510;8.680;2023-05-01T05:16:28;96879.97;;;15.32;51.64
55171;BME280;41060;47.510;8.680;2023-05-01T05:18:55;96837.03;;;15.17;51.53
55171;BME280;41060;47.510;8.680;2023-05-01T05:21:22;96882.19;;;15.45;51.21
55171;BME280;41060;47.510;8.680;2023-05-01T05:23:51;96885.31;;;15.58;51.23
55171;BME280;41060;47.510;8.680;2023-05-01T05:26:18;96883.03;;;15.71;51.35
55171;BME280;41060;47.510;8.680;2023-05-01T05:28:46;96878.19;;;15.74;51.01
55171;BME280;41060;47.510;8.680;2023-05-01T05:31:14;96868.31;;;15.67;50.63
55171;BME280;41060;47.510;8.680;2023-05-01T05:33:41;96889.75;;;15.83;50.97
55171;BME280;41060;47.510;8.680;2023-05-01T05:36:08;96886.28;;;15.91;50.76
55171;BME280;41060;47.510;8.680;2023-05-01T05:38:35;96889.13;;;15.97;50.98
55171;BME280;41060;47.510;8.680;2023-05-01T05:41:02;96877.22;;;16.09;50.91
55171;BME280;41060;47.510;8.680;2023-05-01T05:43:29;96881.91;;;16.16;50.60
55171;BME280;41060;47.510;8.680;2023-05-01T05:45:56;96886.91;;;16.19;50.06
55171;BME280;41060;47.510;8.680;2023-05-01T05:48:25;96854.78;;;16.02;49.99
55171;BME280;41060;47.510;8.680;2023-05-01T05:50:52;96892.63;;;16.24;50.13
55171;BME280;41060;47.510;8.680;2023-05-01T05:53:18;96885.59;;;16.23;50.30
55171;BME280;41060;47.510;8.680;2023-05-01T05:55:46;96883.06;;;16.21;50.40
55171;BME280;41060;47.510;8.680;2023-05-01T05:58:13;96830.84;;;15.85;50.48
55171;BME280;41060;47.510;8.680;2023-05-01T06:00:44;96890.28;;;16.29;49.80
55171;BME280;41060;47.510;8.680;2023-05-01T06:03:12;96895.13;;;16.33;49.78
55171;BME280;41060;47.510;8.680;2023-05-01T06:05:45;96887.78;;;16.35;49.61
55171;BME280;41060;47.510;8.680;2023-05-01T06:08:12;96894.13;;;16.34;49.67
55171;BME280;41060;47.510;8.680;2023-05-01T06:10:45;96890.31;;;16.37;49.75
55171;BME280;41060;47.510;8.680;2023-05-01T06:13:12;96893.66;;;16.39;49.87
55171;BME280;41060;47.510;8.680;2023-05-01T06:15:39;96888.81;;;16.42;50.12
55171;BME280;41060;47.510;8.680;2023-05-01T06:18:06;96898.81;;;16.40;49.84
55171;BME280;41060;47.510;8.680;2023-05-01T06:20:33;96887.47;;;16.38;50.39
55171;BME280;41060;47.510;8.680;2023-05-01T06:23:01;96828.91;;;16.03;50.21
55171;BME280;41060;47.510;8.680;2023-05-01T06:25:28;96890.97;;;16.47;49.62
55171;BME280;41060;47.510;8.680;2023-05-01T06:27:55;96885.47;;;16.48;49.82
55171;BME280;41060;47.510;8.680;2023-05-01T06:30:22;96877.63;;;16.47;49.54
55171;BME280;41060;47.510;8.680;2023-05-01T06:32:48;96881.97;;;16.56;49.46
55171;BME280;41060;47.510;8.680;2023-05-01T06:35:16;96886.31;;;16.57;49.72
55171;BME280;41060;47.510;8.680;2023-05-01T06:37:42;96856.25;;;16.39;49.80
55171;BME280;41060;47.510;8.680;2023-05-01T06:40:10;96887.00;;;16.59;49.54
55171;BME280;41060;47.510;8.680;2023-05-01T06:42:38;96872.94;;;16.41;49.71
55171;BME280;41060;47.510;8.680;2023-05-01T06:45:06;96897.84;;;16.49;50.71
55171;BME280;41060;47.510;8.680;2023-05-01T06:47:33;96891.44;;;16.26;51.29
55171;BME280;41060;47.510;8.680;2023-05-01T06:50:00;96894.97;;;15.93;52.26
55171;BME280;41060;47.510;8.680;2023-05-01T06:52:26;96890.22;;;15.79;52.64
55171;BME280;41060;47.510;8.680;2023-05-01T06:54:53;96896.22;;;15.81;52.35
55171;BME280;41060;47.510;8.680;2023-05-01T06:57:21;96897.84;;;15.65;53.29
55171;BME280;41060;47.510;8.680;2023-05-01T06:59:48;96904.63;;;15.60;53.34
55171;BME280;41060;47.510;8.680;2023-05-01T07:02:14;96903.03;;;15.41;54.04
55171;BME280;41060;47.510;8.680;2023-05-01T07:04:41;96899.38;;;15.42;54.19
55171;BME280;41060;47.510;8.680;2023-05-01T07:07:09;96910.03;;;15.68;53.55
55171;BME280;41060;47.510;8.680;2023-05-01T07:09:36;96910.06;;;15.76;53.67
55171;BME280;41060;47.510;8.680;2023-05-01T07:12:04;96908.19;;;15.68;53.66
55171;BME280;41060;47.510;8.680;2023-05-01T07:14:33;96905.88;;;15.73;53.17
55171;BME280;41060;47.510;8.680;2023-05-01T07:16:59;96906.47;;;15.59;53.78
55171;BME280;41060;47.510;8.680;2023-05-01T07:19:26;96900.16;;;15.34;54.19
55171;BME280;41060;47.510;8.680;2023-05-01T07:21:53;96891.19;;;15.44;54.42
55171;BME280;41060;47.510;8.680;2023-05-01T07:24:19;96908.84;;;15.62;54.53
55171;BME280;41060;47.510;8.680;2023-05-01T07:26:46;96905.16;;;15.38;55.04
55171;BME280;41060;47.510;8.680;2023-05-01T07:29:14;96905.97;;;15.56;54.57
55171;BME280;41060;47.510;8.680;2023-05-01T07:31:42;96904.72;;;15.76;54.54
55171;BME280;41060;47.510;8.680;2023-05-01T07:34:10;96863.13;;;15.57;54.42
55171;BME280;41060;47.510;8.680;2023-05-01T07:36:37;96907.41;;;15.76;55.08
55171;BME280;41060;47.510;8.680;2023-05-01T07:39:06;96898.59;;;15.84;54.65
55171;BME280;41060;47.510;8.680;2023-05-01T07:41:33;96902.53;;;15.71;54.82
55171;BME280;41060;47.510;8.680;2023-05-01T07:44:00;96905.84;;;15.65;54.73
55171;BME280;41060;47.510;8.680;2023-05-01T07:46:26;96867.31;;;15.34;54.82
55171;BME280;41060;47.510;8.680;2023-05-01T07:48:55;96904.44;;;15.53;55.13
55171;BME280;41060;47.510;8.680;2023-05-01T07:51:22;96906.47;;;15.59;54.55
55171;BME280;41060;47.510;8.680;2023-05-01T07:53:49;96908.03;;;15.44;55.50
55171;BME280;41060;47.510;8.680;2023-05-01T07:56:16;96906.59;;;15.50;56.24
55171;BME280;41060;47.510;8.680;2023-05-01T07:58:42;96903.34;;;15.64;55.77
55171;BME280;41060;47.510;8.680;2023-05-01T08:01:09;96895.72;;;15.77;55.66
55171;BME280;41060;47.510;8.680;2023-05-01T08:03:36;96911.25;;;16.07;54.56
55171;BME280;41060;47.510;8.680;2023-05-01T08:06:05;96911.59;;;16.13;53.12
55171;BME280;41060;47.510;8.680;2023-05-01T08:08:31;96909.66;;;16.31;53.71
55171;BME280;41060;47.510;8.680;2023-05-01T08:11:00;96903.44;;;16.14;53.57
55171;BME280;41060;47.510;8.680;2023-05-01T08:13:27;96916.13;;;16.20;54.86
55171;BME280;41060;47.510;8.680;2023-05-01T08:15:53;96916.31;;;16.27;54.65
55171;BME280;41060;47.510;8.680;2023-05-01T08:18:20;96911.50;;;16.30;53.64
55171;BME280;41060;47.510;8.680;2023-05-01T08:20:47;96920.00;;;16.34;53.68
55171;BME280;41060;47.510;8.680;2023-05-01T08:23:16;96860.94;;;16.03;53.32
55171;BME280;41060;47.510;8.680;2023-05-01T08:25:43;96925.91;;;16.45;52.52
55171;BME280;41060;47.510;8.680;2023-05-01T08:28:11;96924.09;;;16.54;52.00
55171;BME280;41060;47.510;8.680;2023-05-01T08:30:38;96925.03;;;16.37;53.06
55171;BME280;41060;47.510;8.680;2023-05-01T08:33:05;96926.72;;;16.38;53.22
55171;BME280;41060;47.510;8.680;2023-05-01T08:35:31;96910.72;;;16.46;52.74
55171;BME280;41060;47.510;8.680;2023-05-01T08:37:58;96927.31;;;16.82;51.96
55171;BME280;41060;47.510;8.680;2023-05-01T08:40:31;96931.03;;;16.97;51.87
55171;BME280;41060;47.510;8.680;2023-05-01T08:42:59;96926.84;;;17.03;51.55
55171;BME280;41060;47.510;8.680;2023-05-01T08:45:27;96925.78;;;16.79;53.58
55171;BME280;41060;47.510;8.680;2023-05-01T08:47:56;96931.94;;;16.64;52.85
55171;BME280;41060;47.510;8.680;2023-05-01T08:50:26;96930.25;;;16.63;52.25
55171;BME280;41060;47.510;8.680;2023-05-01T08:52:55;96932.47;;;16.75;52.05
55171;BME280;41060;47.510;8.680;2023-05-01T08:55:24;96927.84;;;17.02;53.04
55171;BME280;41060;47.510;8.680;2023-05-01T08:57:54;96929.47;;;16.86;53.02
55171;BME280;41060;47.510;8.680;2023-05-01T09:00:23;96930.16;;;16.88;53.43
55171;BME280;41060;47.510;8.680;2023-05-01T09:02:50;96903.19;;;16.49;52.24
55171;BME280;41060;47.510;8.680;2023-05-01T09:05:18;96937.25;;;16.47;53.57
55171;BME280;41060;47.510;8.680;2023-05-01T09:07:46;96931.72;;;16.41;51.52
55171;BME280;41060;47.510;8.680;2023-05-01T09:10:15;96939.47;;;16.18;52.11
55171;BME280;41060;47.510;8.680;2023-05-01T09:12:45;96929.44;;;16.12;52.30
55171;BME280;41060;47.510;8.680;2023-05-01T09:15:13;96942.28;;;15.49;52.02
55171;BME280;41060;47.510;8.680;2023-05-01T09:17:41;96938.75;;;15.74;53.27
55171;BME280;41060;47.510;8.680;2023-05-01T09:20:11;96944.03;;;15.92;53.66
55171;BME280;41060;47.510;8.680;2023-05-01T09:22:39;96940.19;;;16.28;53.02
55171;BME280;41060;47.510;8.680;2023-05-01T09:25:06;96940.22;;;15.94;53.33
55171;BME280;41060;47.510;8.680;2023-05-01T09:27:35;96940.88;;;15.96;53.77
55171;BME280;41060;47.510;8.680;2023-05-01T09:30:03;96899.31;;;15.60;53.09
55171;BME280;41060;47.510;8.680;2023-05-01T09:32:32;96945.75;;;16.01;53.83
55171;BME280;41060;47.510;8.680;2023-05-01T09:35:08;96938.94;;;15.81;52.68
55171;BME280;41060;47.510;8.680;2023-05-01T09:37:35;96828.09;;;15.26;55.49
55171;BME280;41060;47.510;8.680;2023-05-01T09:40:04;96945.22;;;15.97;54.34
55171;BME280;41060;47.510;8.680;2023-05-01T09:42:32;96945.41;;;16.04;54.10
55171;BME280;41060;47.510;8.680;2023-05-01T09:44:59;96926.84;;;15.94;55.16
55171;BME280;41060;47.510;8.680;2023-05-01T09:47:27;96943.97;;;16.09;53.85
55171;BME280;41060;47.510;8.680;2023-05-01T09:49:56;96941.75;;;16.39;53.48
55171;BME280;41060;47.510;8.680;2023-05-01T09:52:25;96905.56;;;15.77;51.87
55171;BME280;41060;47.510;8.680;2023-05-01T09:55:10;96947.72;;;16.25;52.60
55171;BME280;41060;47.510;8.680;2023-05-01T09:57:38;96944.94;;;16.42;52.47
55171;BME280;41060;47.510;8.680;2023-05-01T10:00:08;96942.47;;;16.65;52.08
55171;BME280;41060;47.510;8.680;2023-05-01T10:02:35;96925.75;;;16.55;52.03
55171;BME280;41060;47.510;8.680;2023-05-01T10:05:04;96952.91;;;17.01;51.79
55171;BME280;41060;47.510;8.680;2023-05-01T10:07:32;96921.09;;;16.73;51.66
55171;BME280;41060;47.510;8.680;2023-05-01T10:10:14;96942.00;;;16.86;51.13
55171;BME280;41060;47.510;8.680;2023-05-01T10:12:41;96945.66;;;16.77;51.23
55171;BME280;41060;47.510;8.680;2023-05-01T10:15:08;96942.50;;;16.81;50.84
55171;BME280;41060;47.510;8.680;2023-05-01T10:17:35;96931.31;;;16.86;52.08
55171;BME280;41060;47.510;8.680;2023-05-01T10:20:04;96921.44;;;16.70;51.34
55171;BME280;41060;47.510;8.680;2023-05-01T10:22:31;96948.03;;;16.88;52.66
55171;BME280;41060;47.510;8.680;2023-05-01T10:24:58;96941.66;;;16.73;53.33
55171;BME280;41060;47.510;8.680;2023-05-01T10:27:25;96943.41;;;16.98;51.73
55171;BME280;41060;47.510;8.680;2023-05-01T10:29:52;96943.38;;;17.14;51.93
55171;BME280;41060;47.510;8.680;2023-05-01T10:32:19;96938.72;;;17.41;50.95
55171;BME280;41060;47.510;8.680;2023-05-01T10:34:49;96941.53;;;17.55;53.83
55171;BME280;41060;47.510;8.680;2023-05-01T10:37:23;96940.38;;;17.58;49.86
55171;BME280;41060;47.510;8.680;2023-05-01T10:39:50;96912.94;;;17.48;49.22
55171;BME280;41060;47.510;8.680;2023-05-01T10:42:17;96941.91;;;17.28;47.16
55171;BME280;41060;47.510;8.680;2023-05-01T10:44:43;96936.78;;;17.82;47.91
55171;BME280;41060;47.510;8.680;2023-05-01T10:47:44;96930.94;;;17.78;48.30
55171;BME280;41060;47.510;8.680;2023-05-01T10:50:11;96928.69;;;17.18;49.66
55171;BME280;41060;47.510;8.680;2023-05-01T10:53:16;96934.16;;;16.93;48.23
55171;BME280;41060;47.510;8.680;2023-05-01T10:55:43;96930.31;;;16.95;48.70
55171;BME280;41060;47.510;8.680;2023-05-01T10:58:11;96936.38;;;17.30;48.16
55171;BME280;41060;47.510;8.680;2023-05-01T11:00:38;96932.00;;;17.37;46.83
55171;BME280;41060;47.510;8.680;2023-05-01T11:03:33;96931.38;;;17.35;47.58
55171;BME280;41060;47.510;8.680;2023-05-01T11:06:04;96930.84;;;17.47;47.17
55171;BME280;41060;47.510;8.680;2023-05-01T11:08:33;96923.66;;;17.32;47.66
55171;BME280;41060;47.510;8.680;2023-05-01T11:14:05;96925.09;;;17.75;47.84
55171;BME280;41060;47.510;8.680;2023-05-01T11:16:40;96927.84;;;17.26;45.12
55171;BME280;41060;47.510;8.680;2023-05-01T11:19:08;96920.31;;;17.30;47.05
55171;BME280;41060;47.510;8.680;2023-05-01T11:21:39;96922.66;;;17.41;47.53
55171;BME280;41060;47.510;8.680;2023-05-01T11:24:07;96919.47;;;17.29;45.66
55171;BME280;41060;47.510;8.680;2023-05-01T11:26:37;96923.97;;;16.96;47.25
55171;BME280;41060;47.510;8.680;2023-05-01T11:29:04;96918.47;;;17.14;47.24
55171;BME280;41060;47.510;8.680;2023-05-01T11:31:32;96910.81;;;17.27;48.17
55171;BME280;41060;47.510;8.680;2023-05-01T11:33:59;96913.13;;;17.22;47.57
55171;BME280;41060;47.510;8.680;2023-05-01T11:36:26;96914.41;;;17.66;47.10
55171;BME280;41060;47.510;8.680;2023-05-01T11:38:56;96918.22;;;17.80;46.37
55171;BME280;41060;47.510;8.680;2023-05-01T11:41:26;96914.19;;;18.00;47.64
55171;BME280;41060;47.510;8.680;2023-05-01T11:43:53;96856.81;;;17.79;47.08
55171;BME280;41060;47.510;8.680;2023-05-01T11:46:24;96918.66;;;18.08;46.36
55171;BME280;41060;47.510;8.680;2023-05-01T11:48:52;96914.78;;;17.55;47.92
55171;BME280;41060;47.510;8.680;2023-05-01T11:51:19;96924.66;;;17.47;46.95
55171;BME280;41060;47.510;8.680;2023-05-01T11:53:58;96919.81;;;17.42;46.72
55171;BME280;41060;47.510;8.680;2023-05-01T11:56:27;96913.47;;;17.43;46.53
55171;BME280;41060;47.510;8.680;2023-05-01T11:58:55;96914.94;;;16.73;49.18
55171;BME280;41060;47.510;8.680;2023-05-01T12:01:32;96912.63;;;17.26;48.18
55171;BME280;41060;47.510;8.680;2023-05-01T12:03:59;96925.19;;;17.18;48.36
55171;BME280;41060;47.510;8.680;2023-05-01T12:06:34;96920.97;;;17.40;45.75
55171;BME280;41060;47.510;8.680;2023-05-01T12:09:05;96894.88;;;16.93;46.33
55171;BME280;41060;47.510;8.680;2023-05-01T12:11:37;96921.13;;;17.38;46.12
55171;BME280;41060;47.510;8.680;2023-05-01T12:14:04;96923.34;;;17.43;46.60
55171;BME280;41060;47.510;8.680;2023-05-01T12:16:31;96923.09;;;17.77;46.24
55171;BME280;41060;47.510;8.680;2023-05-01T12:18:58;96925.91;;;17.91;45.46
55171;BME280;41060;47.510;8.680;2023-05-01T12:21:25;96927.59;;;17.76;45.59
55171;BME280;41060;47.510;8.680;2023-05-01T12:23:52;96928.28;;;17.78;45.91
55171;BME280;41060;47.510;8.680;2023-05-01T12:26:21;96929.81;;;17.73;45.52
55171;BME280;41060;47.510;8.680;2023-05-01T12:28:57;96938.31;;;17.76;46.04
55171;BME280;41060;47.510;8.680;2023-05-01T12:31:25;96934.47;;;17.87;45.33
55171;BME280;41060;47.510;8.680;2023-05-01T12:33:54;96925.59;;;17.86;45.70
55171;BME280;41060;47.510;8.680;2023-05-01T12:36:22;96921.94;;;18.26;45.02
55171;BME280;41060;47.510;8.680;2023-05-01T12:38:55;96916.41;;;18.28;44.84
55171;BME280;41060;47.510;8.680;2023-05-01T12:41:37;96931.16;;;18.55;43.98
55171;BME280;41060;47.510;8.680;2023-05-01T12:44:20;96927.63;;;17.84;45.59
55171;BME280;41060;47.510;8.680;2023-05-01T12:46:57;96927.31;;;17.63;46.09
55171;BME280;41060;47.510;8.680;2023-05-01T12:49:24;96928.78;;;17.74;46.65
55171;BME280;41060;47.510;8.680;2023-05-01T12:51:53;96926.75;;;17.92;45.80
55171;BME280;41060;47.510;8.680;2023-05-01T12:54:21;96921.19;;;18.40;44.69
55171;BME280;41060;47.510;8.680;2023-05-01T12:56:48;96917.13;;;18.84;44.09
55171;BME280;41060;47.510;8.680;2023-05-01T12:59:23;96918.88;;;19.14;43.19
55171;BME280;41060;47.510;8.680;2023-05-01T13:01:57;96907.66;;;19.33;43.42
55171;BME280;41060;47.510;8.680;2023-05-01T13:04:26;96915.22;;;19.52;42.58
55171;BME280;41060;47.510;8.680;2023-05-01T13:06:53;96912.25;;;19.47;42.49
55171;BME280;41060;47.510;8.680;2023-05-01T13:09:21;96909.34;;;19.86;42.62
55171;BME280;41060;47.510;8.680;2023-05-01T13:11:58;96909.69;;;20.27;42.01
55171;BME280;41060;47.510;8.680;2023-05-01T13:14:28;96913.78;;;20.23;41.33